sensor_id;sensor_type;location;lat;lon;timestamp;P1;durP1;ratioP1;P2;durP2;ratioP2
45848;SDS011;31567;54.600;9.842;2023-03-14T00:02:32;20.88;;;3.83;;
45848;SDS011;31567;54.600;9.842;2023-03-14T00:06:13;20.38;;;3.17;;
45848;SDS011;31567;54.600;9.842;2023-03-14T00:09:53;17.63;;;3.67;;
45848;SDS011;31567;54.600;9.842;2023-03-14T00:13:32;19.98;;;4.85;;
45848;SDS011;31567;54.600;9.842;2023-03-14T00:17:12;18.52;;;3.17;;
45848;SDS011;31567;54.600;9.842;2023-03-14T00:20:52;22.27;;;3.85;;
45848;SDS011;31567;54.600;9.842;2023-03-14T00:24:32;21.60;;;4.32;;
45848;SDS011;31567;54.600;9.842;2023-03-14T00:28:11;15.55;;;3.63;;
45848;SDS011;31567;54.600;9.842;2023-03-14T00:31:51;25.10;;;4.35;;
45848;SDS011;31567;54.600;9.842;2023-03-14T00:35:32;22.50;;;3.88;;
45848;SDS011;31567;54.600;9.842;2023-03-14T00:39:11;24.10;;;4.00;;
45848;SDS011;31567;54.600;9.842;2023-03-14T00:42:51;19.42;;;4.45;;
45848;SDS011;31567;54.600;9.842;2023-03-14T00:46:30;26.67;;;4.82;;
45848;SDS011;31567;54.600;9.842;2023-03-14T00:50:10;18.90;;;3.30;;
45848;SDS011;31567;54.600;9.842;2023-03-14T00:53:50;20.20;;;3.88;;
45848;SDS011;31567;54.600;9.842;2023-03-14T00:57:29;19.48;;;3.33;;
45848;SDS011;31567;54.600;9.842;2023-03-14T01:01:10;19.65;;;3.85;;
45848;SDS011;31567;54.600;9.842;2023-03-14T01:04:52;19.10;;;4.22;;
45848;SDS011;31567;54.600;9.842;2023-03-14T01:08:31;17.45;;;4.00;;
45848;SDS011;31567;54.600;9.842;2023-03-14T01:12:11;20.30;;;3.95;;
45848;SDS011;31567;54.600;9.842;2023-03-14T01:15:50;19.33;;;4.20;;
45848;SDS011;31567;54.600;9.842;2023-03-14T01:19:30;20.40;;;3.42;;
45848;SDS011;31567;54.600;9.842;2023-03-14T01:23:10;16.88;;;3.70;;
45848;SDS011;31567;54.600;9.842;2023-03-14T01:26:50;16.88;;;4.28;;
45848;SDS011;31567;54.600;9.842;2023-03-14T01:30:29;23.48;;;4.28;;
45848;SDS011;31567;54.600;9.842;2023-03-14T01:34:09;19.35;;;4.22;;
45848;SDS011;31567;54.600;9.842;2023-03-14T01:37:48;20.05;;;3.38;;
45848;SDS011;31567;54.600;9.842;2023-03-14T01:41:28;22.42;;;4.55;;
45848;SDS011;31567;54.600;9.842;2023-03-14T01:45:53;18.85;;;4.90;;
45848;SDS011;31567;54.600;9.842;2023-03-14T01:49:35;14.75;;;3.28;;
45848;SDS011;31567;54.600;9.842;2023-03-14T01:53:15;18.08;;;3.60;;
45848;SDS011;31567;54.600;9.842;2023-03-14T01:56:56;20.17;;;4.60;;
45848;SDS011;31567;54.600;9.842;2023-03-14T02:00:41;14.80;;;3.77;;
45848;SDS011;31567;54.600;9.842;2023-03-14T02:04:20;22.02;;;3.72;;
45848;SDS011;31567;54.600;9.842;2023-03-14T02:08:01;22.35;;;3.75;;
45848;SDS011;31567;54.600;9.842;2023-03-14T02:11:44;26.77;;;4.68;;
45848;SDS011;31567;54.600;9.842;2023-03-14T02:15:24;21.40;;;3.17;;
45848;SDS011;31567;54.600;9.842;2023-03-14T02:19:04;12.13;;;2.55;;
45848;SDS011;31567;54.600;9.842;2023-03-14T02:22:45;15.18;;;3.55;;
45848;SDS011;31567;54.600;9.842;2023-03-14T02:26:35;18.92;;;4.22;;
45848;SDS011;31567;54.600;9.842;2023-03-14T02:30:23;15.93;;;3.65;;
45848;SDS011;31567;54.600;9.842;2023-03-14T02:34:05;14.85;;;3.35;;
45848;SDS011;31567;54.600;9.842;2023-03-14T02:37:47;17.60;;;3.35;;
45848;SDS011;31567;54.600;9.842;2023-03-14T02:41:39;16.70;;;2.85;;
45848;SDS011;31567;54.600;9.842;2023-03-14T02:49:03;18.05;;;3.20;;
45848;SDS011;31567;54.600;9.842;2023-03-14T02:52:46;21.30;;;3.10;;
45848;SDS011;31567;54.600;9.842;2023-03-14T02:56:26;13.82;;;2.90;;
45848;SDS011;31567;54.600;9.842;2023-03-14T03:00:05;19.58;;;3.25;;
45848;SDS011;31567;54.600;9.842;2023-03-14T03:03:47;19.17;;;4.30;;
45848;SDS011;31567;54.600;9.842;2023-03-14T03:07:26;16.85;;;3.33;;
45848;SDS011;31567;54.600;9.842;2023-03-14T03:11:06;21.13;;;4.40;;
45848;SDS011;31567;54.600;9.842;2023-03-14T03:14:45;21.83;;;4.53;;
45848;SDS011;31567;54.600;9.842;2023-03-14T03:18:25;19.75;;;3.90;;
45848;SDS011;31567;54.600;9.842;2023-03-14T03:22:05;18.70;;;4.95;;
45848;SDS011;31567;54.600;9.842;2023-03-14T03:25:48;17.25;;;3.13;;
45848;SDS011;31567;54.600;9.842;2023-03-14T03:29:28;21.90;;;3.78;;
45848;SDS011;31567;54.600;9.842;2023-03-14T03:33:08;18.73;;;4.05;;
45848;SDS011;31567;54.600;9.842;2023-03-14T03:36:48;15.90;;;3.22;;
45848;SDS011;31567;54.600;9.842;2023-03-14T03:40:27;18.60;;;3.13;;
45848;SDS011;31567;54.600;9.842;2023-03-14T03:44:07;19.10;;;4.90;;
45848;SDS011;31567;54.600;9.842;2023-03-14T03:47:46;11.15;;;2.75;;
45848;SDS011;31567;54.600;9.842;2023-03-14T03:51:26;14.90;;;3.22;;
45848;SDS011;31567;54.600;9.842;2023-03-14T03:55:06;16.92;;;3.33;;
45848;SDS011;31567;54.600;9.842;2023-03-14T03:58:45;14.25;;;3.58;;
45848;SDS011;31567;54.600;9.842;2023-03-14T04:02:25;12.38;;;2.70;;
45848;SDS011;31567;54.600;9.842;2023-03-14T04:06:05;11.77;;;2.90;;
45848;SDS011;31567;54.600;9.842;2023-03-14T04:09:47;11.23;;;2.30;;
45848;SDS011;31567;54.600;9.842;2023-03-14T04:13:27;18.77;;;3.50;;
45848;SDS011;31567;54.600;9.842;2023-03-14T04:17:07;14.35;;;3.60;;
45848;SDS011;31567;54.600;9.842;2023-03-14T04:20:50;16.08;;;3.13;;
45848;SDS011;31567;54.600;9.842;2023-03-14T04:28:14;14.35;;;3.55;;
45848;SDS011;31567;54.600;9.842;2023-03-14T04:31:53;14.00;;;3.00;;
45848;SDS011;31567;54.600;9.842;2023-03-14T04:35:34;14.50;;;2.78;;
45848;SDS011;31567;54.600;9.842;2023-03-14T04:39:13;13.07;;;3.28;;
45848;SDS011;31567;54.600;9.842;2023-03-14T04:42:53;15.52;;;3.25;;
45848;SDS011;31567;54.600;9.842;2023-03-14T04:46:32;12.30;;;3.45;;
45848;SDS011;31567;54.600;9.842;2023-03-14T04:50:12;10.25;;;2.50;;
45848;SDS011;31567;54.600;9.842;2023-03-14T04:53:51;11.52;;;3.25;;
45848;SDS011;31567;54.600;9.842;2023-03-14T04:57:31;15.48;;;3.75;;
45848;SDS011;31567;54.600;9.842;2023-03-14T05:01:10;12.32;;;2.70;;
45848;SDS011;31567;54.600;9.842;2023-03-14T05:04:50;10.38;;;3.22;;
45848;SDS011;31567;54.600;9.842;2023-03-14T05:08:30;6.53;;;2.70;;
45848;SDS011;31567;54.600;9.842;2023-03-14T05:12:09;10.18;;;3.05;;
45848;SDS011;31567;54.600;9.842;2023-03-14T05:15:49;10.32;;;2.53;;
45848;SDS011;31567;54.600;9.842;2023-03-14T05:19:34;7.82;;;3.45;;
45848;SDS011;31567;54.600;9.842;2023-03-14T05:23:14;6.65;;;2.38;;
45848;SDS011;31567;54.600;9.842;2023-03-14T05:26:53;10.77;;;2.75;;
45848;SDS011;31567;54.600;9.842;2023-03-14T05:30:33;8.02;;;2.65;;
45848;SDS011;31567;54.600;9.842;2023-03-14T05:34:13;8.93;;;3.38;;
45848;SDS011;31567;54.600;9.842;2023-03-14T05:37:52;8.23;;;2.83;;
45848;SDS011;31567;54.600;9.842;2023-03-14T05:41:32;8.15;;;2.60;;
45848;SDS011;31567;54.600;9.842;2023-03-14T05:45:11;7.18;;;2.38;;
45848;SDS011;31567;54.600;9.842;2023-03-14T05:48:51;6.80;;;2.67;;
45848;SDS011;31567;54.600;9.842;2023-03-14T05:52:30;6.93;;;2.17;;
45848;SDS011;31567;54.600;9.842;2023-03-14T05:56:10;12.98;;;3.40;;
45848;SDS011;31567;54.600;9.842;2023-03-14T05:59:49;9.27;;;2.50;;
45848;SDS011;31567;54.600;9.842;2023-03-14T06:03:29;6.00;;;2.75;;
45848;SDS011;31567;54.600;9.842;2023-03-14T06:07:08;10.85;;;3.03;;
45848;SDS011;31567;54.600;9.842;2023-03-14T06:10:48;7.15;;;2.65;;
45848;SDS011;31567;54.600;9.842;2023-03-14T06:14:27;11.32;;;4.13;;
45848;SDS011;31567;54.600;9.842;2023-03-14T06:18:07;11.25;;;3.83;;
45848;SDS011;31567;54.600;9.842;2023-03-14T06:21:47;11.07;;;3.63;;
45848;SDS011;31567;54.600;9.842;2023-03-14T06:25:26;10.70;;;3.30;;
45848;SDS011;31567;54.600;9.842;2023-03-14T06:29:06;11.68;;;3.63;;
45848;SDS011;31567;54.600;9.842;2023-03-14T06:32:45;12.52;;;3.67;;
45848;SDS011;31567;54.600;9.842;2023-03-14T06:36:25;10.63;;;4.03;;
45848;SDS011;31567;54.600;9.842;2023-03-14T06:40:05;9.32;;;4.45;;
45848;SDS011;31567;54.600;9.842;2023-03-14T06:43:46;11.60;;;4.45;;
45848;SDS011;31567;54.600;9.842;2023-03-14T06:47:25;11.02;;;3.55;;
45848;SDS011;31567;54.600;9.842;2023-03-14T06:51:05;7.60;;;3.85;;
45848;SDS011;31567;54.600;9.842;2023-03-14T06:54:45;11.50;;;4.03;;
45848;SDS011;31567;54.600;9.842;2023-03-14T06:58:25;6.60;;;3.60;;
45848;SDS011;31567;54.600;9.842;2023-03-14T07:02:04;12.48;;;4.13;;
45848;SDS011;31567;54.600;9.842;2023-03-14T07:05:46;9.52;;;4.97;;
45848;SDS011;31567;54.600;9.842;2023-03-14T07:09:26;6.20;;;3.92;;
45848;SDS011;31567;54.600;9.842;2023-03-14T07:13:05;11.63;;;3.45;;
45848;SDS011;31567;54.600;9.842;2023-03-14T07:16:45;11.32;;;3.95;;
45848;SDS011;31567;54.600;9.842;2023-03-14T07:20:25;14.90;;;3.65;;
45848;SDS011;31567;54.600;9.842;2023-03-14T07:24:04;8.75;;;3.53;;
45848;SDS011;31567;54.600;9.842;2023-03-14T07:27:44;7.70;;;3.20;;
45848;SDS011;31567;54.600;9.842;2023-03-14T07:31:24;10.70;;;4.28;;
45848;SDS011;31567;54.600;9.842;2023-03-14T07:35:04;8.63;;;3.67;;
45848;SDS011;31567;54.600;9.842;2023-03-14T07:38:44;8.57;;;3.35;;
45848;SDS011;31567;54.600;9.842;2023-03-14T07:42:24;9.25;;;4.25;;
45848;SDS011;31567;54.600;9.842;2023-03-14T07:46:03;9.25;;;4.40;;
45848;SDS011;31567;54.600;9.842;2023-03-14T07:49:43;6.88;;;3.35;;
45848;SDS011;31567;54.600;9.842;2023-03-14T07:53:23;8.23;;;3.55;;
45848;SDS011;31567;54.600;9.842;2023-03-14T07:57:03;8.60;;;4.05;;
45848;SDS011;31567;54.600;9.842;2023-03-14T08:00:43;0.70;;;0.63;;
45848;SDS011;31567;54.600;9.842;2023-03-14T08:04:23;0.35;;;0.10;;
45848;SDS011;31567;54.600;9.842;2023-03-14T08:08:03;1.73;;;0.50;;
45848;SDS011;31567;54.600;9.842;2023-03-14T08:11:43;0.20;;;0.20;;
45848;SDS011;31567;54.600;9.842;2023-03-14T08:15:23;0.95;;;0.52;;
45848;SDS011;31567;54.600;9.842;2023-03-14T08:19:03;2.95;;;0.47;;
45848;SDS011;31567;54.600;9.842;2023-03-14T08:22:42;1.20;;;0.30;;
45848;SDS011;31567;54.600;9.842;2023-03-14T08:26:22;0.82;;;0.50;;
45848;SDS011;31567;54.600;9.842;2023-03-14T08:30:02;0.57;;;0.20;;
45848;SDS011;31567;54.600;9.842;2023-03-14T08:33:42;1.95;;;0.40;;
45848;SDS011;31567;54.600;9.842;2023-03-14T08:37:22;2.15;;;0.55;;
45848;SDS011;31567;54.600;9.842;2023-03-14T08:41:03;4.53;;;1.00;;
45848;SDS011;31567;54.600;9.842;2023-03-14T08:44:43;3.28;;;0.50;;
45848;SDS011;31567;54.600;9.842;2023-03-14T08:48:23;4.20;;;0.98;;
45848;SDS011;31567;54.600;9.842;2023-03-14T08:52:03;3.88;;;0.77;;
45848;SDS011;31567;54.600;9.842;2023-03-14T08:55:43;3.38;;;0.85;;
45848;SDS011;31567;54.600;9.842;2023-03-14T08:59:23;1.88;;;0.50;;
45848;SDS011;31567;54.600;9.842;2023-03-14T09:03:03;3.53;;;0.60;;
45848;SDS011;31567;54.600;9.842;2023-03-14T09:06:42;2.15;;;0.70;;
45848;SDS011;31567;54.600;9.842;2023-03-14T09:10:22;2.92;;;0.57;;
45848;SDS011;31567;54.600;9.842;2023-03-14T09:14:01;0.75;;;0.32;;
45848;SDS011;31567;54.600;9.842;2023-03-14T09:17:42;1.45;;;0.22;;
45848;SDS011;31567;54.600;9.842;2023-03-14T09:21:22;1.50;;;0.32;;
45848;SDS011;31567;54.600;9.842;2023-03-14T09:25:05;0.60;;;0.40;;
45848;SDS011;31567;54.600;9.842;2023-03-14T09:28:45;1.90;;;0.55;;
45848;SDS011;31567;54.600;9.842;2023-03-14T09:32:24;3.38;;;0.60;;
45848;SDS011;31567;54.600;9.842;2023-03-14T09:36:04;1.67;;;0.45;;
45848;SDS011;31567;54.600;9.842;2023-03-14T09:39:44;0.70;;;0.45;;
45848;SDS011;31567;54.600;9.842;2023-03-14T09:43:24;0.82;;;0.50;;
45848;SDS011;31567;54.600;9.842;2023-03-14T09:47:10;2.22;;;0.80;;
45848;SDS011;31567;54.600;9.842;2023-03-14T09:50:53;1.70;;;0.82;;
45848;SDS011;31567;54.600;9.842;2023-03-14T09:54:37;1.25;;;0.65;;
45848;SDS011;31567;54.600;9.842;2023-03-14T09:58:21;3.63;;;0.70;;
45848;SDS011;31567;54.600;9.842;2023-03-14T10:02:10;1.25;;;0.20;;
45848;SDS011;31567;54.600;9.842;2023-03-14T10:05:53;4.93;;;0.77;;
45848;SDS011;31567;54.600;9.842;2023-03-14T10:09:34;6.35;;;1.00;;
45848;SDS011;31567;54.600;9.842;2023-03-14T10:13:16;3.75;;;1.42;;
45848;SDS011;31567;54.600;9.842;2023-03-14T10:17:04;8.27;;;1.27;;
45848;SDS011;31567;54.600;9.842;2023-03-14T10:20:47;6.03;;;1.20;;
45848;SDS011;31567;54.600;9.842;2023-03-14T10:24:34;1.83;;;0.80;;
45848;SDS011;31567;54.600;9.842;2023-03-14T10:28:24;4.50;;;1.00;;
45848;SDS011;31567;54.600;9.842;2023-03-14T10:32:10;11.10;;;1.60;;
45848;SDS011;31567;54.600;9.842;2023-03-14T10:36:00;4.68;;;0.70;;
45848;SDS011;31567;54.600;9.842;2023-03-14T10:40:01;7.97;;;1.33;;
45848;SDS011;31567;54.600;9.842;2023-03-14T10:43:44;6.97;;;0.93;;
45848;SDS011;31567;54.600;9.842;2023-03-14T10:47:28;9.10;;;1.08;;
45848;SDS011;31567;54.600;9.842;2023-03-14T10:51:10;6.53;;;0.93;;
45848;SDS011;31567;54.600;9.842;2023-03-14T10:55:00;3.55;;;0.73;;
45848;SDS011;31567;54.600;9.842;2023-03-14T10:58:43;9.43;;;1.33;;
45848;SDS011;31567;54.600;9.842;2023-03-14T11:07:41;4.93;;;0.93;;
45848;SDS011;31567;54.600;9.842;2023-03-14T11:19:20;13.32;;;1.58;;
45848;SDS011;31567;54.600;9.842;2023-03-14T11:27:00;6.95;;;1.10;;
45848;SDS011;31567;54.600;9.842;2023-03-14T11:30:58;11.40;;;2.22;;
45848;SDS011;31567;54.600;9.842;2023-03-14T11:35:04;12.93;;;1.50;;
45848;SDS011;31567;54.600;9.842;2023-03-14T11:38:56;8.07;;;1.20;;
45848;SDS011;31567;54.600;9.842;2023-03-14T11:42:37;11.68;;;1.95;;
45848;SDS011;31567;54.600;9.842;2023-03-14T11:46:21;10.00;;;2.20;;
45848;SDS011;31567;54.600;9.842;2023-03-14T11:50:25;11.38;;;1.23;;
45848;SDS011;31567;54.600;9.842;2023-03-14T12:02:10;7.70;;;1.25;;
45848;SDS011;31567;54.600;9.842;2023-03-14T12:09:43;8.38;;;1.52;;
45848;SDS011;31567;54.600;9.842;2023-03-14T12:13:27;6.97;;;1.33;;
45848;SDS011;31567;54.600;9.842;2023-03-14T12:21:01;15.02;;;1.88;;
45848;SDS011;31567;54.600;9.842;2023-03-14T12:24:53;6.00;;;1.52;;
45848;SDS011;31567;54.600;9.842;2023-03-14T12:28:38;8.05;;;1.45;;
45848;SDS011;31567;54.600;9.842;2023-03-14T12:32:23;8.40;;;1.30;;
45848;SDS011;31567;54.600;9.842;2023-03-14T12:36:04;8.82;;;1.13;;
45848;SDS011;31567;54.600;9.842;2023-03-14T12:39:53;10.23;;;1.77;;
45848;SDS011;31567;54.600;9.842;2023-03-14T12:43:35;5.75;;;1.50;;
45848;SDS011;31567;54.600;9.842;2023-03-14T12:51:02;6.75;;;1.70;;
45848;SDS011;31567;54.600;9.842;2023-03-14T12:55:02;4.22;;;0.63;;
45848;SDS011;31567;54.600;9.842;2023-03-14T13:03:20;4.63;;;1.40;;
45848;SDS011;31567;54.600;9.842;2023-03-14T13:07:10;2.95;;;0.65;;
45848;SDS011;31567;54.600;9.842;2023-03-14T13:11:12;6.95;;;1.00;;
45848;SDS011;31567;54.600;9.842;2023-03-14T13:14:57;5.57;;;0.90;;
45848;SDS011;31567;54.600;9.842;2023-03-14T13:18:45;2.85;;;0.75;;
45848;SDS011;31567;54.600;9.842;2023-03-14T13:22:27;3.88;;;0.73;;
45848;SDS011;31567;54.600;9.842;2023-03-14T13:26:11;6.38;;;1.27;;
45848;SDS011;31567;54.600;9.842;2023-03-14T13:29:52;6.70;;;0.60;;
45848;SDS011;31567;54.600;9.842;2023-03-14T13:33:32;5.90;;;0.88;;
45848;SDS011;31567;54.600;9.842;2023-03-14T13:37:16;7.05;;;0.80;;
45848;SDS011;31567;54.600;9.842;2023-03-14T13:40:59;3.50;;;0.55;;
45848;SDS011;31567;54.600;9.842;2023-03-14T13:44:43;3.28;;;0.63;;
45848;SDS011;31567;54.600;9.842;2023-03-14T13:48:26;3.90;;;0.90;;
45848;SDS011;31567;54.600;9.842;2023-03-14T13:56:17;4.88;;;0.98;;
45848;SDS011;31567;54.600;9.842;2023-03-14T14:00:03;8.32;;;1.05;;
45848;SDS011;31567;54.600;9.842;2023-03-14T14:03:48;6.60;;;0.70;;
45848;SDS011;31567;54.600;9.842;2023-03-14T14:07:29;5.10;;;0.95;;
45848;SDS011;31567;54.600;9.842;2023-03-14T14:11:09;9.70;;;1.60;;
45848;SDS011;31567;54.600;9.842;2023-03-14T14:15:04;7.32;;;1.17;;
45848;SDS011;31567;54.600;9.842;2023-03-14T14:18:46;4.97;;;1.15;;
45848;SDS011;31567;54.600;9.842;2023-03-14T14:22:26;8.77;;;1.30;;
45848;SDS011;31567;54.600;9.842;2023-03-14T14:26:06;3.83;;;0.88;;
45848;SDS011;31567;54.600;9.842;2023-03-14T14:29:56;5.53;;;1.00;;
45848;SDS011;31567;54.600;9.842;2023-03-14T14:33:41;4.72;;;1.15;;
45848;SDS011;31567;54.600;9.842;2023-03-14T14:37:29;5.35;;;1.38;;
45848;SDS011;31567;54.600;9.842;2023-03-14T14:41:11;3.38;;;0.70;;
45848;SDS011;31567;54.600;9.842;2023-03-14T14:44:51;4.22;;;0.70;;
45848;SDS011;31567;54.600;9.842;2023-03-14T14:48:35;8.48;;;0.95;;
45848;SDS011;31567;54.600;9.842;2023-03-14T14:52:17;4.47;;;0.82;;
45848;SDS011;31567;54.600;9.842;2023-03-14T14:55:59;2.85;;;1.10;;
45848;SDS011;31567;54.600;9.842;2023-03-14T14:59:47;6.15;;;1.23;;
45848;SDS011;31567;54.600;9.842;2023-03-14T15:03:28;7.38;;;0.98;;
45848;SDS011;31567;54.600;9.842;2023-03-14T15:07:10;4.70;;;1.40;;
45848;SDS011;31567;54.600;9.842;2023-03-14T15:10:49;4.93;;;0.77;;
45848;SDS011;31567;54.600;9.842;2023-03-14T15:14:29;4.78;;;1.17;;
45848;SDS011;31567;54.600;9.842;2023-03-14T15:18:13;7.13;;;1.00;;
45848;SDS011;31567;54.600;9.842;2023-03-14T15:21:54;3.05;;;0.40;;
45848;SDS011;31567;54.600;9.842;2023-03-14T15:25:34;5.28;;;1.67;;
45848;SDS011;31567;54.600;9.842;2023-03-14T15:29:13;5.20;;;1.35;;
45848;SDS011;31567;54.600;9.842;2023-03-14T15:32:53;6.13;;;1.15;;
45848;SDS011;31567;54.600;9.842;2023-03-14T15:36:33;10.40;;;1.20;;
45848;SDS011;31567;54.600;9.842;2023-03-14T15:40:14;5.35;;;0.90;;
45848;SDS011;31567;54.600;9.842;2023-03-14T15:43:54;9.45;;;1.38;;
45848;SDS011;31567;54.600;9.842;2023-03-14T15:47:34;5.65;;;1.23;;
45848;SDS011;31567;54.600;9.842;2023-03-14T15:51:14;11.48;;;1.95;;
45848;SDS011;31567;54.600;9.842;2023-03-14T15:54:54;5.35;;;0.85;;
45848;SDS011;31567;54.600;9.842;2023-03-14T15:58:33;8.73;;;1.23;;
45848;SDS011;31567;54.600;9.842;2023-03-14T16:02:13;5.55;;;1.10;;
45848;SDS011;31567;54.600;9.842;2023-03-14T16:05:52;5.53;;;1.30;;
45848;SDS011;31567;54.600;9.842;2023-03-14T16:09:32;10.85;;;0.93;;
45848;SDS011;31567;54.600;9.842;2023-03-14T16:13:12;8.50;;;1.00;;
45848;SDS011;31567;54.600;9.842;2023-03-14T16:16:52;4.88;;;0.85;;
45848;SDS011;31567;54.600;9.842;2023-03-14T16:20:32;9.40;;;1.27;;
45848;SDS011;31567;54.600;9.842;2023-03-14T16:24:11;8.60;;;1.42;;
45848;SDS011;31567;54.600;9.842;2023-03-14T16:27:51;6.25;;;1.23;;
45848;SDS011;31567;54.600;9.842;2023-03-14T16:31:30;6.60;;;1.75;;
45848;SDS011;31567;54.600;9.842;2023-03-14T16:35:10;7.78;;;1.20;;
45848;SDS011;31567;54.600;9.842;2023-03-14T16:38:49;5.10;;;1.73;;
45848;SDS011;31567;54.600;9.842;2023-03-14T16:42:29;9.10;;;1.80;;
45848;SDS011;31567;54.600;9.842;2023-03-14T16:46:15;6.75;;;1.70;;
45848;SDS011;31567;54.600;9.842;2023-03-14T16:49:55;11.00;;;1.70;;
45848;SDS011;31567;54.600;9.842;2023-03-14T16:53:34;5.93;;;1.75;;
45848;SDS011;31567;54.600;9.842;2023-03-14T16:57:14;5.40;;;1.02;;
45848;SDS011;31567;54.600;9.842;2023-03-14T17:00:54;3.80;;;1.13;;
45848;SDS011;31567;54.600;9.842;2023-03-14T17:04:38;8.02;;;1.65;;
45848;SDS011;31567;54.600;9.842;2023-03-14T17:08:18;6.90;;;1.25;;
45848;SDS011;31567;54.600;9.842;2023-03-14T17:11:58;9.15;;;1.20;;
45848;SDS011;31567;54.600;9.842;2023-03-14T17:15:38;6.47;;;1.52;;
45848;SDS011;31567;54.600;9.842;2023-03-14T17:19:22;4.72;;;0.95;;
45848;SDS011;31567;54.600;9.842;2023-03-14T17:23:02;2.67;;;0.52;;
45848;SDS011;31567;54.600;9.842;2023-03-14T17:26:41;5.63;;;0.50;;
45848;SDS011;31567;54.600;9.842;2023-03-14T17:30:21;5.30;;;0.70;;
45848;SDS011;31567;54.600;9.842;2023-03-14T17:34:00;5.10;;;0.70;;
45848;SDS011;31567;54.600;9.842;2023-03-14T17:37:40;3.78;;;1.38;;
45848;SDS011;31567;54.600;9.842;2023-03-14T17:41:20;2.85;;;0.60;;
45848;SDS011;31567;54.600;9.842;2023-03-14T17:44:59;4.93;;;1.25;;
45848;SDS011;31567;54.600;9.842;2023-03-14T17:48:40;9.30;;;1.05;;
45848;SDS011;31567;54.600;9.842;2023-03-14T17:52:20;3.70;;;1.10;;
45848;SDS011;31567;54.600;9.842;2023-03-14T17:55:59;7.78;;;1.35;;
45848;SDS011;31567;54.600;9.842;2023-03-14T17:59:39;4.75;;;1.35;;
45848;SDS011;31567;54.600;9.842;2023-03-14T18:03:20;6.90;;;1.02;;
45848;SDS011;31567;54.600;9.842;2023-03-14T18:07:00;6.90;;;1.45;;
45848;SDS011;31567;54.600;9.842;2023-03-14T18:10:40;13.95;;;1.33;;
45848;SDS011;31567;54.600;9.842;2023-03-14T18:14:20;5.32;;;0.77;;
45848;SDS011;31567;54.600;9.842;2023-03-14T18:17:59;5.00;;;0.68;;
45848;SDS011;31567;54.600;9.842;2023-03-14T18:21:42;6.97;;;0.47;;
45848;SDS011;31567;54.600;9.842;2023-03-14T18:25:22;2.95;;;0.50;;
45848;SDS011;31567;54.600;9.842;2023-03-14T18:29:02;3.17;;;0.98;;
45848;SDS011;31567;54.600;9.842;2023-03-14T18:32:41;4.18;;;0.90;;
45848;SDS011;31567;54.600;9.842;2023-03-14T18:36:21;7.35;;;0.90;;
45848;SDS011;31567;54.600;9.842;2023-03-14T18:40:01;5.47;;;0.93;;
45848;SDS011;31567;54.600;9.842;2023-03-14T18:43:43;6.97;;;1.73;;
45848;SDS011;31567;54.600;9.842;2023-03-14T18:47:23;7.63;;;1.70;;
45848;SDS011;31567;54.600;9.842;2023-03-14T18:51:04;11.27;;;2.10;;
45848;SDS011;31567;54.600;9.842;2023-03-14T18:54:44;6.60;;;1.10;;
45848;SDS011;31567;54.600;9.842;2023-03-14T18:58:23;5.75;;;0.98;;
45848;SDS011;31567;54.600;9.842;2023-03-14T19:02:07;5.05;;;0.80;;
45848;SDS011;31567;54.600;9.842;2023-03-14T19:05:47;5.90;;;1.02;;
45848;SDS011;31567;54.600;9.842;2023-03-14T19:09:27;10.50;;;1.33;;
45848;SDS011;31567;54.600;9.842;2023-03-14T19:13:06;4.00;;;0.57;;
45848;SDS011;31567;54.600;9.842;2023-03-14T19:16:46;5.45;;;0.80;;
45848;SDS011;31567;54.600;9.842;2023-03-14T19:20:25;9.43;;;1.48;;
45848;SDS011;31567;54.600;9.842;2023-03-14T19:24:05;3.38;;;1.38;;
45848;SDS011;31567;54.600;9.842;2023-03-14T19:27:45;8.60;;;2.05;;
45848;SDS011;31567;54.600;9.842;2023-03-14T19:31:25;5.63;;;0.73;;
45848;SDS011;31567;54.600;9.842;2023-03-14T19:35:05;7.03;;;0.90;;
45848;SDS011;31567;54.600;9.842;2023-03-14T19:38:44;9.07;;;0.98;;
45848;SDS011;31567;54.600;9.842;2023-03-14T19:42:24;7.82;;;0.88;;
45848;SDS011;31567;54.600;9.842;2023-03-14T19:46:03;5.53;;;1.40;;
45848;SDS011;31567;54.600;9.842;2023-03-14T19:49:43;10.18;;;1.40;;
45848;SDS011;31567;54.600;9.842;2023-03-14T19:53:23;6.78;;;1.35;;
45848;SDS011;31567;54.600;9.842;2023-03-14T19:57:02;10.80;;;2.28;;
45848;SDS011;31567;54.600;9.842;2023-03-14T20:00:43;8.00;;;2.63;;
45848;SDS011;31567;54.600;9.842;2023-03-14T20:04:24;12.48;;;3.25;;
45848;SDS011;31567;54.600;9.842;2023-03-14T20:08:04;7.43;;;2.20;;
45848;SDS011;31567;54.600;9.842;2023-03-14T20:11:43;5.70;;;1.23;;
45848;SDS011;31567;54.600;9.842;2023-03-14T20:15:23;6.03;;;1.55;;
45848;SDS011;31567;54.600;9.842;2023-03-14T20:19:04;8.07;;;1.33;;
45848;SDS011;31567;54.600;9.842;2023-03-14T20:22:48;7.45;;;1.13;;
45848;SDS011;31567;54.600;9.842;2023-03-14T20:26:27;8.15;;;0.85;;
45848;SDS011;31567;54.600;9.842;2023-03-14T20:30:08;4.45;;;0.80;;
45848;SDS011;31567;54.600;9.842;2023-03-14T20:33:50;2.35;;;0.55;;
45848;SDS011;31567;54.600;9.842;2023-03-14T20:37:30;8.00;;;1.23;;
45848;SDS011;31567;54.600;9.842;2023-03-14T20:41:10;11.13;;;1.50;;
45848;SDS011;31567;54.600;9.842;2023-03-14T20:44:50;5.72;;;1.13;;
45848;SDS011;31567;54.600;9.842;2023-03-14T20:48:30;4.13;;;1.00;;
45848;SDS011;31567;54.600;9.842;2023-03-14T20:52:10;3.03;;;0.70;;
45848;SDS011;31567;54.600;9.842;2023-03-14T20:55:53;3.53;;;0.73;;
45848;SDS011;31567;54.600;9.842;2023-03-14T20:59:34;7.25;;;0.95;;
45848;SDS011;31567;54.600;9.842;2023-03-14T21:03:14;5.03;;;1.30;;
45848;SDS011;31567;54.600;9.842;2023-03-14T21:06:54;4.95;;;0.77;;
45848;SDS011;31567;54.600;9.842;2023-03-14T21:10:34;5.53;;;0.90;;
45848;SDS011;31567;54.600;9.842;2023-03-14T21:14:13;6.25;;;0.70;;
45848;SDS011;31567;54.600;9.842;2023-03-14T21:17:56;11.95;;;1.92;;
45848;SDS011;31567;54.600;9.842;2023-03-14T21:21:35;5.00;;;1.05;;
45848;SDS011;31567;54.600;9.842;2023-03-14T21:25:15;5.63;;;0.77;;
45848;SDS011;31567;54.600;9.842;2023-03-14T21:28:55;4.78;;;1.02;;
45848;SDS011;31567;54.600;9.842;2023-03-14T21:32:35;5.60;;;0.70;;
45848;SDS011;31567;54.600;9.842;2023-03-14T21:36:14;5.82;;;0.80;;
45848;SDS011;31567;54.600;9.842;2023-03-14T21:39:54;3.42;;;1.05;;
45848;SDS011;31567;54.600;9.842;2023-03-14T21:43:34;4.32;;;0.90;;
45848;SDS011;31567;54.600;9.842;2023-03-14T21:47:14;6.38;;;1.02;;
45848;SDS011;31567;54.600;9.842;2023-03-14T21:50:54;6.90;;;0.80;;
45848;SDS011;31567;54.600;9.842;2023-03-14T21:54:33;4.10;;;0.93;;
45848;SDS011;31567;54.600;9.842;2023-03-14T21:58:13;4.38;;;0.80;;
45848;SDS011;31567;54.600;9.842;2023-03-14T22:01:53;8.27;;;0.93;;
45848;SDS011;31567;54.600;9.842;2023-03-14T22:05:33;5.75;;;0.65;;
45848;SDS011;31567;54.600;9.842;2023-03-14T22:09:13;4.22;;;0.65;;
45848;SDS011;31567;54.600;9.842;2023-03-14T22:12:52;7.70;;;0.90;;
45848;SDS011;31567;54.600;9.842;2023-03-14T22:16:34;4.75;;;0.60;;
45848;SDS011;31567;54.600;9.842;2023-03-14T22:20:13;10.40;;;3.00;;
45848;SDS011;31567;54.600;9.842;2023-03-14T22:23:53;6.70;;;1.17;;
45848;SDS011;31567;54.600;9.842;2023-03-14T22:27:33;7.22;;;1.13;;
45848;SDS011;31567;54.600;9.842;2023-03-14T22:31:12;15.40;;;2.45;;
45848;SDS011;31567;54.600;9.842;2023-03-14T22:34:52;8.70;;;1.08;;
45848;SDS011;31567;54.600;9.842;2023-03-14T22:38:31;7.88;;;1.00;;
45848;SDS011;31567;54.600;9.842;2023-03-14T22:42:11;9.65;;;1.00;;
45848;SDS011;31567;54.600;9.842;2023-03-14T22:45:57;11.73;;;0.90;;
45848;SDS011;31567;54.600;9.842;2023-03-14T22:49:37;7.18;;;1.10;;
45848;SDS011;31567;54.600;9.842;2023-03-14T22:53:17;9.93;;;1.88;;
45848;SDS011;31567;54.600;9.842;2023-03-14T22:56:57;26.85;;;2.22;;
45848;SDS011;31567;54.600;9.842;2023-03-14T23:00:36;7.07;;;1.27;;